createdAt,value
2022-07-29T00:03:41.232Z,0
2022-07-29T00:08:41.180Z,0
2022-07-29T00:13:41.195Z,0
2022-07-29T00:29:32.246Z,0
2022-07-29T00:33:51.039Z,0
2022-07-29T00:38:42.565Z,0
2022-07-29T00:43:41.631Z,0
2022-07-29T00:48:41.338Z,0
2022-07-29T00:58:41.254Z,0
2022-07-29T01:03:41.445Z,0
2022-07-29T01:13:41.462Z,0
2022-07-29T01:18:41.209Z,0
2022-07-29T01:28:41.153Z,0
2022-07-29T01:33:41.258Z,0
2022-07-29T01:43:41.238Z,0
2022-07-29T01:48:41.430Z,0
2022-07-29T01:53:41.241Z,0
2022-07-29T01:58:41.329Z,0
2022-07-29T02:03:41.325Z,0
2022-07-29T02:08:41.224Z,0
2022-07-29T02:13:41.265Z,0
2022-07-29T02:28:41.261Z,0
2022-07-29T02:33:41.244Z,0
2022-07-29T02:43:41.366Z,0
2022-07-29T02:48:51.982Z,0
2022-07-29T02:53:41.254Z,0
2022-07-29T02:58:41.231Z,0
2022-07-29T03:03:41.206Z,0
2022-07-29T03:13:41.284Z,0
2022-07-29T03:18:41.308Z,0
2022-07-29T03:23:41.222Z,0
2022-07-29T03:28:42.709Z,0
2022-07-29T03:33:41.269Z,0
2022-07-29T03:38:41.245Z,256
2022-07-29T03:43:49.194Z,257
2022-07-29T03:48:41.305Z,259
2022-07-29T03:53:41.322Z,262
2022-07-29T03:58:41.299Z,266
2022-07-29T04:13:41.250Z,277
2022-07-29T04:18:41.178Z,280
2022-07-29T04:23:46.014Z,283
2022-07-29T04:28:41.216Z,297
2022-07-29T04:38:43.350Z,296
2022-07-29T04:43:41.255Z,304
2022-07-29T04:48:41.249Z,313
2022-07-29T04:53:41.216Z,343
2022-07-29T04:58:41.242Z,348
2022-07-29T05:03:41.245Z,345
2022-07-29T05:08:41.844Z,333
2022-07-29T05:13:45.555Z,349
2022-07-29T05:23:41.255Z,426
2022-07-29T05:28:41.302Z,433
2022-07-29T05:33:41.234Z,437
2022-07-29T05:38:42.988Z,447
2022-07-29T05:43:41.352Z,459
2022-07-29T05:48:45.241Z,463
2022-07-29T05:58:41.235Z,658
2022-07-29T06:03:41.255Z,628
2022-07-29T06:08:41.251Z,576
2022-07-29T06:13:41.582Z,607
2022-07-29T06:18:41.338Z,664
2022-07-29T06:28:41.276Z,701
2022-07-29T06:33:43.206Z,722
2022-07-29T06:38:47.602Z,726
2022-07-29T06:48:41.362Z,898
2022-07-29T06:53:58.531Z,935
2022-07-29T06:58:41.238Z,943
2022-07-29T07:03:41.291Z,917
2022-07-29T07:08:41.283Z,971
2022-07-29T07:13:41.280Z,1014
2022-07-29T07:18:41.248Z,1045
2022-07-29T07:23:41.306Z,1138
2022-07-29T07:28:41.264Z,1071
2022-07-29T07:33:41.313Z,969
2022-07-29T07:38:41.280Z,999
2022-07-29T07:43:41.255Z,1220
2022-07-29T07:48:41.352Z,1302
2022-07-29T07:53:41.272Z,1294
2022-07-29T07:58:41.334Z,1327
2022-07-29T08:03:41.334Z,1432
2022-07-29T08:08:41.271Z,1533
2022-07-29T08:13:41.362Z,1491
2022-07-29T08:18:41.331Z,1386
2022-07-29T08:23:45.429Z,1379
2022-07-29T08:28:41.288Z,1346
2022-07-29T08:33:41.681Z,1593
2022-07-29T08:38:44.079Z,1514
2022-07-29T08:43:43.094Z,1198
2022-07-29T08:48:41.310Z,1778
2022-07-29T08:53:42.913Z,1532
2022-07-29T08:58:41.317Z,1853
2022-07-29T09:03:41.351Z,2160
2022-07-29T09:08:41.789Z,2224
2022-07-29T09:13:41.354Z,2019
2022-07-29T09:18:41.293Z,2299
2022-07-29T09:23:41.331Z,3327
2022-07-29T09:28:41.334Z,2110
2022-07-29T09:33:41.404Z,2028
2022-07-29T09:43:42.312Z,2161
2022-07-29T09:53:41.416Z,4690
2022-07-29T10:03:41.525Z,3646
2022-07-29T10:08:41.415Z,1641
2022-07-29T10:13:42.414Z,2218
2022-07-29T10:28:41.534Z,8802
2022-07-29T10:33:41.357Z,4582
2022-07-29T10:38:45.885Z,3699
2022-07-29T10:43:42.301Z,7908
2022-07-29T10:48:41.447Z,10455
2022-07-29T10:53:41.421Z,9644
2022-07-29T10:58:41.948Z,8962
2022-07-29T11:03:41.459Z,9997
2022-07-29T11:08:41.409Z,1412
2022-07-29T11:13:42.921Z,1139
2022-07-29T11:23:42.773Z,1387
2022-07-29T11:28:41.359Z,1627
2022-07-29T11:33:54.957Z,1274
2022-07-29T11:38:42.416Z,1744
2022-07-29T11:43:44.157Z,1722
2022-07-29T11:48:41.484Z,1552
2022-07-29T11:53:41.426Z,1629
2022-07-29T11:58:41.361Z,1596
2022-07-29T12:03:41.414Z,1353
2022-07-29T12:08:41.393Z,1187
2022-07-29T12:13:41.387Z,857
2022-07-29T12:18:41.421Z,880
2022-07-29T12:23:41.765Z,1019
2022-07-29T12:28:41.377Z,1056
2022-07-29T12:33:43.091Z,820
2022-07-29T12:38:42.340Z,659
2022-07-29T12:43:42.032Z,663
2022-07-29T12:48:41.512Z,483
2022-07-29T12:53:41.408Z,557
2022-07-29T12:58:41.417Z,878
2022-07-29T13:03:41.396Z,741
2022-07-29T13:08:41.447Z,588
2022-07-29T13:13:41.479Z,569
2022-07-29T13:18:41.420Z,638
2022-07-29T13:23:41.443Z,492
2022-07-29T13:33:41.418Z,624
2022-07-29T13:38:41.450Z,620
2022-07-29T13:43:43.186Z,604
2022-07-29T13:48:41.528Z,604
2022-07-29T13:53:41.488Z,637
2022-07-29T13:58:41.455Z,776
2022-07-29T14:03:41.449Z,908
2022-07-29T14:08:41.423Z,1187
2022-07-29T14:13:41.496Z,1333
2022-07-29T14:18:43.964Z,1329
2022-07-29T14:23:42.384Z,1098
2022-07-29T14:28:41.903Z,924
2022-07-29T14:33:41.509Z,1035
2022-07-29T14:38:41.441Z,931
2022-07-29T14:43:41.457Z,766
2022-07-29T14:48:41.554Z,683
2022-07-29T14:53:41.484Z,906
2022-07-29T15:03:41.495Z,751
2022-07-29T15:08:41.781Z,806
2022-07-29T15:13:41.490Z,837
2022-07-29T15:23:41.486Z,674
2022-07-29T15:28:41.459Z,607
2022-07-29T15:33:41.479Z,485
2022-07-29T15:38:41.923Z,543
2022-07-29T15:43:41.520Z,636
2022-07-29T15:48:43.203Z,611
2022-07-29T15:53:41.505Z,634
2022-07-29T15:58:42.972Z,564
2022-07-29T16:03:45.758Z,440
2022-07-29T16:08:41.483Z,431
2022-07-29T16:18:41.517Z,426
2022-07-29T16:23:42.506Z,384
2022-07-29T16:28:41.451Z,310
2022-07-29T16:33:53.522Z,306
2022-07-29T16:38:46.969Z,336
2022-07-29T16:43:41.485Z,335
2022-07-29T16:48:41.579Z,385
2022-07-29T16:53:41.523Z,440
2022-07-29T16:58:43.695Z,433
2022-07-29T17:03:41.560Z,402
2022-07-29T17:08:41.469Z,377
2022-07-29T17:13:41.596Z,374
2022-07-29T17:18:41.533Z,367
2022-07-29T17:23:41.505Z,352
2022-07-29T17:28:41.512Z,342
2022-07-29T17:33:41.564Z,336
2022-07-29T17:38:41.567Z,335
2022-07-29T17:43:41.487Z,329
2022-07-29T17:48:41.591Z,318
2022-07-29T17:53:41.573Z,299
2022-07-29T17:58:41.505Z,288
2022-07-29T18:03:42.826Z,291
2022-07-29T18:08:43.351Z,283
2022-07-29T18:13:41.525Z,280
2022-07-29T18:18:41.602Z,276
2022-07-29T18:28:41.601Z,274
2022-07-29T18:33:43.326Z,268
2022-07-29T18:38:41.598Z,265
2022-07-29T18:43:41.569Z,262
2022-07-29T18:48:43.581Z,260
2022-07-29T18:53:42.018Z,259
2022-07-29T18:58:41.589Z,256
2022-07-29T19:08:41.726Z,0
2022-07-29T19:13:41.577Z,0
2022-07-29T19:18:41.575Z,0
2022-07-29T19:24:00.558Z,0
2022-07-29T19:28:41.845Z,0
2022-07-29T19:33:41.569Z,0
2022-07-29T19:38:41.758Z,0
2022-07-29T19:43:50.303Z,0
2022-07-29T19:48:41.629Z,0
2022-07-29T19:53:41.565Z,0
2022-07-29T19:58:41.622Z,0
2022-07-29T20:03:41.625Z,0
2022-07-29T20:08:41.586Z,0
2022-07-29T20:13:41.555Z,0
2022-07-29T20:18:41.574Z,0
2022-07-29T20:23:41.568Z,0
2022-07-29T20:28:41.903Z,0
2022-07-29T20:33:43.636Z,0
2022-07-29T20:38:41.775Z,0
2022-07-29T20:43:41.611Z,0
2022-07-29T20:48:41.642Z,0
2022-07-29T20:53:41.651Z,0
2022-07-29T20:58:41.629Z,0
2022-07-29T21:03:41.631Z,0
2022-07-29T21:08:41.606Z,0
2022-07-29T21:13:41.598Z,0
2022-07-29T21:18:41.581Z,0
2022-07-29T21:23:41.616Z,0
2022-07-29T21:33:41.655Z,0
2022-07-29T21:38:42.051Z,0
2022-07-29T21:43:41.715Z,0
2022-07-29T21:48:44.515Z,0
2022-07-29T21:53:41.655Z,0
2022-07-29T21:58:41.638Z,0
2022-07-29T22:03:41.670Z,0
2022-07-29T22:08:41.628Z,0
2022-07-29T22:13:41.663Z,0
2022-07-29T22:18:41.734Z,0
2022-07-29T22:23:41.643Z,0
2022-07-29T22:28:41.665Z,0
2022-07-29T22:33:41.641Z,0
2022-07-29T22:38:41.670Z,0
2022-07-29T22:43:41.691Z,0
2022-07-29T22:48:41.729Z,0
2022-07-29T22:53:41.701Z,0
2022-07-29T22:58:41.703Z,0
2022-07-29T23:03:41.689Z,0
2022-07-29T23:08:41.703Z,0
2022-07-29T23:13:41.710Z,0
2022-07-29T23:18:41.701Z,0
2022-07-29T23:23:42.576Z,0
2022-07-29T23:28:41.672Z,0
2022-07-29T23:33:41.941Z,0
2022-07-29T23:38:41.780Z,0
2022-07-29T23:43:41.671Z,0
2022-07-29T23:48:41.750Z,0
2022-07-29T23:53:53.557Z,0
2022-07-29T23:58:41.679Z,0
